createdAt,value
2019-01-27T00:05:00.194Z,93763.48
2019-01-27T00:08:24.423Z,93753.11
2019-01-27T00:11:48.387Z,93751.98
2019-01-27T00:19:02.384Z,93732.56
2019-01-27T00:22:26.339Z,93728.52
2019-01-27T00:25:50.401Z,93723.38
2019-01-27T00:29:14.359Z,93715.50
2019-01-27T00:32:38.321Z,93710.66
2019-01-27T00:36:02.604Z,93707.67
2019-01-27T00:39:26.565Z,93695.52
2019-01-27T00:42:50.874Z,93691.97
2019-01-27T00:46:33.880Z,93685.16
2019-01-27T00:49:50.778Z,93685.16
2019-01-27T00:53:14.741Z,93681.17
2019-01-27T00:56:38.746Z,93676.03
2019-01-27T01:00:02.815Z,93674.89
2019-01-27T01:03:27.055Z,93671.52
2019-01-27T01:06:51.110Z,93671.00
2019-01-27T01:10:34.401Z,93680.36
2019-01-27T01:13:58.618Z,93675.39
2019-01-27T01:17:22.850Z,93672.34
2019-01-27T01:20:47.244Z,93673.38
2019-01-27T01:24:11.373Z,93669.92
2019-01-27T01:27:35.341Z,93662.73
2019-01-27T01:30:59.562Z,93659.55
2019-01-27T01:34:23.518Z,93653.73
2019-01-27T01:37:47.772Z,93645.25
2019-01-27T01:40:52.660Z,93641.90
2019-01-27T01:44:16.667Z,93639.86
2019-01-27T01:47:40.633Z,93632.52
2019-01-27T01:50:57.625Z,93614.61
2019-01-27T01:54:21.579Z,93617.52
2019-01-27T01:58:04.662Z,93618.82
2019-01-27T02:04:59.801Z,93607.79
2019-01-27T02:08:24.021Z,93608.63
2019-01-27T02:11:47.991Z,93593.45
2019-01-27T02:15:33.086Z,93584.53
2019-01-27T02:18:57.049Z,93578.25
2019-01-27T02:22:21.023Z,93571.95
2019-01-27T02:25:44.985Z,93560.68
2019-01-27T02:29:08.964Z,93550.89
2019-01-27T02:39:54.487Z,93541.23
2019-01-27T02:43:37.498Z,93528.48
2019-01-27T02:47:01.992Z,93528.44
2019-01-27T02:50:22.743Z,93521.08
2019-01-27T02:53:46.720Z,93520.66
2019-01-27T03:04:30.563Z,93509.91
2019-01-27T03:07:54.537Z,93496.88
2019-01-27T03:11:18.836Z,93499.45
2019-01-27T03:14:42.813Z,93490.37
2019-01-27T03:21:56.703Z,93482.66
2019-01-27T03:25:20.976Z,93476.16
2019-01-27T03:28:45.024Z,93470.45
2019-01-27T03:32:09.016Z,93464.84
2019-01-27T03:35:32.978Z,93456.00
2019-01-27T03:38:56.965Z,93451.07
2019-01-27T03:49:46.715Z,93424.33
2019-01-27T03:53:10.696Z,93415.98
2019-01-27T03:56:34.697Z,93404.38
2019-01-27T03:59:58.706Z,93404.72
2019-01-27T04:03:22.684Z,93395.24
2019-01-27T04:06:46.932Z,93389.62
2019-01-27T04:10:30.336Z,93380.74
2019-01-27T04:13:34.949Z,93378.43
2019-01-27T04:16:59.030Z,93375.05
2019-01-27T04:24:13.451Z,93357.63
2019-01-27T04:27:37.890Z,93354.72
2019-01-27T04:31:01.901Z,93347.53
2019-01-27T04:34:26.070Z,93353.23
2019-01-27T04:37:50.282Z,93347.77
2019-01-27T04:41:14.256Z,93342.67
2019-01-27T04:44:38.492Z,93329.42
2019-01-27T04:52:04.753Z,93317.70
2019-01-27T04:55:28.737Z,93318.23
2019-01-27T04:58:52.706Z,93319.83
2019-01-27T07:44:30.520Z,93138.98
2019-01-27T07:47:52.031Z,93136.58
2019-01-27T07:51:35.282Z,93117.31
2019-01-27T07:55:21.302Z,93106.25
2019-01-27T07:59:04.531Z,93096.63
2019-01-27T08:02:47.522Z,93089.02
2019-01-27T08:06:30.783Z,93086.14
2019-01-27T08:13:48.795Z,93091.53
2019-01-27T08:17:31.804Z,93083.95
2019-01-27T08:21:14.797Z,93081.07
2019-01-27T08:28:33.838Z,93078.14
2019-01-27T08:32:17.503Z,93073.95
2019-01-27T08:36:00.511Z,93071.63
2019-01-27T08:39:43.757Z,93070.55
2019-01-27T08:50:15.935Z,93068.40
2019-01-27T08:57:22.824Z,93063.38
2019-01-27T09:04:36.549Z,93043.84
2019-01-27T09:11:54.645Z,93031.31
2019-01-27T09:15:37.711Z,93035.64
2019-01-27T09:26:40.381Z,93013.13
2019-01-27T09:30:44.439Z,93016.45
2019-01-27T09:34:27.504Z,93001.67
2019-01-27T09:38:10.757Z,92997.97
2019-01-27T09:41:53.960Z,92995.25
2019-01-27T09:45:36.984Z,92995.80
2019-01-27T09:48:56.209Z,93002.61
2019-01-27T09:52:39.285Z,93003.58
2019-01-27T10:00:07.213Z,92997.75
2019-01-27T10:07:21.341Z,92992.59
2019-01-27T10:11:04.356Z,92990.06
2019-01-27T10:14:47.616Z,92984.02
2019-01-27T10:22:05.541Z,92981.94
2019-01-27T10:25:29.304Z,92974.78
2019-01-27T10:29:12.535Z,92973.11
2019-01-27T10:32:55.593Z,92962.91
2019-01-27T10:36:38.667Z,92956.52
2019-01-27T10:40:21.911Z,92957.45
2019-01-27T10:44:05.000Z,92937.01
2019-01-27T10:51:25.797Z,92913.02
2019-01-27T10:56:26.236Z,92906.77
2019-01-27T11:00:09.269Z,92896.58
2019-01-27T14:47:42.568Z,92714.48
2019-01-27T14:50:50.590Z,92712.48
2019-01-27T14:53:58.444Z,92702.14
2019-01-27T14:57:06.116Z,92695.14
2019-01-27T15:00:24.162Z,92692.00
2019-01-27T15:03:32.410Z,92680.20
2019-01-27T15:06:40.293Z,92678.99
2019-01-27T15:09:47.953Z,92683.61
2019-01-27T15:12:56.006Z,92678.39
2019-01-27T15:16:03.616Z,92678.77
2019-01-27T15:19:11.242Z,92671.56
2019-01-27T15:22:19.091Z,92664.56
2019-01-27T15:25:26.701Z,92654.68
2019-01-27T15:28:35.149Z,92643.21
2019-01-27T15:31:42.850Z,92644.51
2019-01-27T15:34:50.717Z,92651.43
2019-01-27T15:37:58.482Z,92644.92
2019-01-27T15:41:06.073Z,92646.06
2019-01-27T15:44:13.647Z,92646.35
2019-01-27T15:47:21.406Z,92641.30
2019-01-27T15:50:30.662Z,92642.24
2019-01-27T15:53:38.202Z,92644.72
2019-01-27T15:56:46.046Z,92643.86
2019-01-27T15:59:53.648Z,92641.66
2019-01-27T16:03:01.137Z,92653.91
2019-01-27T16:06:08.803Z,92653.28
2019-01-27T16:09:16.659Z,92667.06
2019-01-27T16:12:24.558Z,92667.83
2019-01-27T16:15:33.193Z,92663.63
2019-01-27T16:18:41.691Z,92664.64
2019-01-27T16:21:49.616Z,92667.15
2019-01-27T16:24:57.605Z,92659.14
2019-01-27T16:28:05.872Z,92660.58
2019-01-27T16:35:26.142Z,92663.34
2019-01-27T16:38:33.762Z,92662.78
2019-01-27T16:48:19.101Z,92657.73
2019-01-27T16:51:26.835Z,92658.24
2019-01-27T16:54:34.549Z,92662.87
2019-01-27T16:57:42.079Z,92669.48
2019-01-27T17:00:49.717Z,92669.17
2019-01-27T17:03:57.271Z,92667.65
2019-01-27T17:07:04.992Z,92665.91
2019-01-27T17:10:13.907Z,92658.58
2019-01-27T17:13:21.822Z,92664.19
2019-01-27T17:16:30.226Z,92657.91
2019-01-27T17:19:38.899Z,92657.91
2019-01-27T17:22:46.980Z,92653.41
2019-01-27T17:25:54.874Z,92649.55
2019-01-27T17:29:02.463Z,92646.41
2019-01-27T17:32:10.358Z,92644.67
2019-01-27T17:35:21.162Z,92636.03
2019-01-27T17:38:28.747Z,92639.00
2019-01-27T17:41:37.551Z,92643.66
2019-01-27T17:44:44.995Z,92644.48
2019-01-27T17:47:53.079Z,92641.23
2019-01-27T17:51:01.491Z,92639.16
2019-01-27T17:54:09.611Z,92647.80
2019-01-27T17:57:36.854Z,92643.94
2019-01-27T18:01:16.105Z,92642.89
2019-01-27T18:04:42.248Z,92650.35
2019-01-27T18:08:02.067Z,92652.72
2019-01-27T18:11:21.656Z,92664.47
2019-01-27T18:14:32.315Z,92672.90
2019-01-27T18:17:39.819Z,92662.45
2019-01-27T18:20:47.669Z,92651.80
2019-01-27T18:23:55.419Z,92641.50
2019-01-27T18:27:02.954Z,92632.80
2019-01-27T18:30:16.267Z,92619.05
2019-01-27T18:33:23.710Z,92616.84
2019-01-27T18:36:31.369Z,92619.25
2019-01-27T18:39:39.566Z,92614.89
2019-01-27T18:42:50.296Z,92622.08
2019-01-27T18:45:58.150Z,92634.20
2019-01-27T18:49:05.852Z,92636.25
2019-01-27T18:52:13.411Z,92632.11
2019-01-27T18:55:28.292Z,92614.81
2019-01-27T18:58:52.475Z,92618.25
2019-01-27T19:02:26.412Z,92614.06
2019-01-27T19:05:40.007Z,92603.17
2019-01-27T19:09:10.217Z,92596.52
2019-01-27T19:12:28.377Z,92606.41
2019-01-27T19:16:01.799Z,92604.00
2019-01-27T19:19:29.618Z,92609.94
2019-01-27T19:22:50.461Z,92611.25
2019-01-27T19:26:09.900Z,92622.50
2019-01-27T19:29:46.302Z,92634.64
2019-01-27T19:33:15.803Z,92629.72
2019-01-27T19:36:46.813Z,92611.27
2019-01-27T19:40:15.015Z,92601.92
2019-01-27T19:43:48.208Z,92614.70
2019-01-27T19:47:18.030Z,92590.77
2019-01-27T19:50:44.346Z,92603.93
2019-01-27T19:53:57.864Z,92608.25
2019-01-27T19:57:13.053Z,92596.56
2019-01-27T20:00:40.230Z,92595.76
2019-01-27T20:03:57.415Z,92607.48
2019-01-27T20:07:24.640Z,92613.52
2019-01-27T20:11:07.335Z,92625.58
2019-01-27T20:14:31.379Z,92624.17
2019-01-27T20:17:49.786Z,92607.98
2019-01-27T20:21:09.027Z,92596.57
2019-01-27T20:24:31.924Z,92599.47
2019-01-27T20:27:47.784Z,92592.08
2019-01-27T20:31:17.694Z,92593.78
2019-01-27T20:35:00.446Z,92591.99
2019-01-27T20:38:34.120Z,92603.05
2019-01-27T20:42:04.520Z,92609.20
2019-01-27T20:45:44.300Z,92620.26
2019-01-27T20:49:17.452Z,92622.04
2019-01-27T20:52:32.105Z,92650.22
2019-01-27T20:55:47.875Z,92670.86
2019-01-27T20:59:12.778Z,92682.00
2019-01-27T21:02:32.363Z,92683.20
2019-01-27T21:06:02.661Z,92672.72
2019-01-27T21:09:24.791Z,92684.19
2019-01-27T21:12:51.020Z,92695.18
2019-01-27T21:16:06.419Z,92704.13
2019-01-27T21:19:22.912Z,92688.00
2019-01-27T21:22:31.385Z,92691.39
2019-01-27T21:25:39.244Z,92690.19
2019-01-27T21:28:50.937Z,92694.84
2019-01-27T21:31:58.580Z,92694.78
2019-01-27T21:35:07.639Z,92698.72
2019-01-27T21:38:15.670Z,92701.73
2019-01-27T21:41:23.170Z,92697.51
2019-01-27T21:44:32.343Z,92699.88
2019-01-27T21:47:40.457Z,92692.81
2019-01-27T21:50:48.414Z,92696.22
2019-01-27T21:53:56.047Z,92697.48
2019-01-27T21:57:03.783Z,92689.70
2019-01-27T22:00:18.031Z,92683.25
2019-01-27T22:03:25.388Z,92680.08
2019-01-27T22:06:34.122Z,92682.70
2019-01-27T22:09:41.784Z,92680.48
2019-01-27T22:12:49.677Z,92688.49
2019-01-27T22:15:57.070Z,92689.47
2019-01-27T22:19:04.932Z,92687.94
2019-01-27T22:22:12.598Z,92687.35
2019-01-27T22:25:21.067Z,92689.45
2019-01-27T22:28:29.129Z,92690.11
2019-01-27T22:31:37.028Z,92683.37
2019-01-27T22:34:44.757Z,92681.63
2019-01-27T22:37:52.535Z,92687.20
2019-01-27T22:41:00.266Z,92682.93
2019-01-27T22:44:07.977Z,92684.03
2019-01-27T22:47:15.457Z,92689.09
2019-01-27T22:50:22.989Z,92694.25
2019-01-27T22:53:30.358Z,92702.66
2019-01-27T22:56:37.922Z,92698.51
2019-01-27T22:59:45.432Z,92706.16
2019-01-27T23:02:52.938Z,92714.14
2019-01-27T23:06:00.928Z,92714.25
2019-01-27T23:09:14.681Z,92724.86
2019-01-27T23:12:22.155Z,92718.30
2019-01-27T23:15:29.636Z,92729.52
2019-01-27T23:18:37.527Z,92733.06
2019-01-27T23:21:45.257Z,92742.72
2019-01-27T23:24:52.674Z,92734.97
2019-01-27T23:28:00.246Z,92743.66
2019-01-27T23:31:07.634Z,92746.30
2019-01-27T23:34:15.241Z,92749.67
2019-01-27T23:37:22.680Z,92755.14
2019-01-27T23:40:30.885Z,92762.03
2019-01-27T23:43:38.437Z,92771.22
2019-01-27T23:46:51.215Z,92780.65
2019-01-27T23:49:58.658Z,92782.50
2019-01-27T23:53:06.192Z,92784.07
2019-01-27T23:56:13.562Z,92790.73
2019-01-27T23:59:22.739Z,92795.22
